Time;durP1;ratioP1;P1;durP2;ratioP2;P2;SDS_P1;SDS_P2;PMS_P1;PMS_P2;Temp;Humidity;BMP_temperature;BMP_pressure;BME280_temperature;BME280_humidity;BME280_pressure;Samples;Min_cycle;Max_cycle;Signal;HPM_P1;HPM_P2
2021/01/22 00:01:41;;;;;;;0.67;0.60;;;8.40;99.90;;;;;;5009734;28;20301;-73
2021/01/22 00:04:08;;;;;;;0.67;0.67;;;8.40;99.90;;;;;;5010132;28;20244;-73
2021/01/22 00:06:35;;;;;;;0.80;0.80;;;8.40;99.90;;;;;;5009923;28;20750;-73
2021/01/22 00:09:01;;;;;;;0.97;0.90;;;8.40;99.90;;;;;;5009747;28;20216;-72
2021/01/22 00:11:28;;;;;;;1.53;1.43;;;8.40;99.90;;;;;;5009942;28;20287;-73
2021/01/22 00:13:54;;;;;;;1.93;1.83;;;8.40;99.90;;;;;;5009829;28;20299;-72
2021/01/22 00:16:20;;;;;;;1.57;1.20;;;8.50;99.90;;;;;;5009928;28;20355;-73
2021/01/22 00:18:47;;;;;;;1.00;1.00;;;8.50;99.90;;;;;;5009520;28;20230;-73
2021/01/22 00:21:13;;;;;;;1.10;1.10;;;8.50;99.90;;;;;;5009697;28;21080;-73
2021/01/22 00:23:40;;;;;;;1.03;0.90;;;8.50;99.90;;;;;;5009346;28;20326;-73
2021/01/22 00:26:07;;;;;;;1.50;0.93;;;8.50;99.90;;;;;;5009466;28;20236;-73
2021/01/22 00:28:34;;;;;;;1.07;1.00;;;8.40;99.90;;;;;;5009848;28;20218;-73
2021/01/22 00:31:00;;;;;;;0.90;0.90;;;8.50;99.90;;;;;;5009590;28;20216;-73
2021/01/22 00:33:27;;;;;;;0.97;0.97;;;8.50;99.90;;;;;;5009785;28;20201;-73
2021/01/22 00:35:53;;;;;;;1.10;1.00;;;8.50;99.90;;;;;;5009852;28;20232;-72
2021/01/22 00:38:19;;;;;;;0.90;0.90;;;8.50;99.90;;;;;;5009723;28;20209;-72
2021/01/22 00:40:47;;;;;;;1.03;1.03;;;8.50;99.90;;;;;;5009516;28;20683;-74
2021/01/22 00:43:13;;;;;;;1.40;1.30;;;8.50;99.90;;;;;;5009389;28;20328;-72
2021/01/22 00:45:39;;;;;;;1.17;1.00;;;8.50;99.90;;;;;;5009038;28;20788;-72
2021/01/22 00:48:07;;;;;;;1.53;1.30;;;8.50;99.90;;;;;;5009419;28;20209;-70
2021/01/22 00:50:33;;;;;;;1.17;1.17;;;8.50;99.90;;;;;;5009582;28;20292;-72
2021/01/22 00:52:59;;;;;;;1.27;1.20;;;8.50;99.90;;;;;;5008878;28;20217;-71
2021/01/22 00:55:26;;;;;;;1.03;1.03;;;8.60;99.90;;;;;;5008851;28;20205;-71
2021/01/22 00:57:53;;;;;;;1.37;1.27;;;8.60;99.90;;;;;;5009420;28;20216;-71
2021/01/22 01:00:20;;;;;;;1.17;1.07;;;8.60;99.90;;;;;;5009173;28;20210;-71
2021/01/22 01:02:46;;;;;;;1.00;1.00;;;8.70;99.90;;;;;;5008948;28;20209;-72
2021/01/22 01:05:13;;;;;;;1.20;1.10;;;8.70;99.90;;;;;;5008756;28;20209;-72
2021/01/22 01:07:39;;;;;;;1.23;1.23;;;8.70;99.90;;;;;;5009102;28;20233;-72
2021/01/22 01:10:07;;;;;;;1.40;1.20;;;8.70;99.90;;;;;;5009182;28;20236;-72
2021/01/22 01:12:34;;;;;;;3.03;1.43;;;8.70;99.90;;;;;;5009163;28;20205;-72
2021/01/22 01:15:01;;;;;;;0.90;0.90;;;8.70;99.90;;;;;;5009176;28;20209;-72
2021/01/22 01:17:27;;;;;;;1.40;1.30;;;8.60;99.90;;;;;;5008966;28;20213;-72
2021/01/22 01:19:54;;;;;;;0.87;0.87;;;8.70;99.90;;;;;;5008763;28;20229;-72
2021/01/22 01:22:20;;;;;;;1.03;1.03;;;8.70;99.90;;;;;;5008960;28;20611;-72
2021/01/22 01:24:46;;;;;;;1.67;1.17;;;8.70;99.90;;;;;;5008761;28;20285;-72
2021/01/22 01:27:13;;;;;;;0.83;0.83;;;8.60;99.90;;;;;;5008693;28;20244;-72
2021/01/22 01:29:39;;;;;;;0.87;0.70;;;8.60;99.90;;;;;;5008897;28;20241;-72
2021/01/22 01:32:07;;;;;;;0.90;0.90;;;8.70;99.90;;;;;;5008879;28;20308;-72
2021/01/22 01:34:33;;;;;;;1.00;1.00;;;8.70;99.90;;;;;;5008634;28;20206;-71
2021/01/22 01:36:59;;;;;;;0.60;0.60;;;8.70;99.90;;;;;;5008803;28;20686;-72
2021/01/22 01:39:26;;;;;;;0.87;0.87;;;8.80;99.90;;;;;;5008455;28;20578;-72
2021/01/22 01:41:52;;;;;;;0.50;0.50;;;8.90;99.90;;;;;;5008670;28;20205;-72
2021/01/22 01:44:18;;;;;;;0.47;0.47;;;9.00;99.90;;;;;;5008400;28;20233;-72
2021/01/22 01:46:45;;;;;;;0.40;0.40;;;9.10;99.90;;;;;;5008417;28;20232;-72
2021/01/22 01:49:12;;;;;;;0.53;0.47;;;9.20;99.90;;;;;;5008112;28;20201;-72
2021/01/22 01:51:39;;;;;;;0.67;0.67;;;9.20;99.90;;;;;;5008261;28;20255;-72
2021/01/22 01:54:05;;;;;;;0.77;0.63;;;9.20;99.90;;;;;;5008309;28;20201;-72
2021/01/22 01:56:32;;;;;;;0.50;0.50;;;9.20;99.90;;;;;;5008503;28;20296;-72
2021/01/22 01:59:00;;;;;;;0.40;0.40;;;9.20;99.90;;;;;;5008348;28;20263;-72
2021/01/22 02:01:27;;;;;;;0.40;0.40;;;9.30;99.90;;;;;;5008251;28;20209;-72
2021/01/22 02:03:54;;;;;;;0.87;0.43;;;9.40;99.90;;;;;;5008276;28;20284;-72
2021/01/22 02:06:21;;;;;;;0.40;0.40;;;9.40;99.90;;;;;;5007668;28;20233;-71
2021/01/22 02:08:47;;;;;;;0.37;0.33;;;9.60;99.90;;;;;;5008394;28;20205;-71
2021/01/22 02:11:15;;;;;;;0.40;0.40;;;9.80;99.90;;;;;;5008084;28;20734;-72
2021/01/22 02:13:44;;;;;;;0.40;0.40;;;9.70;99.90;;;;;;5008119;28;20207;-72
2021/01/22 02:16:10;;;;;;;0.63;0.57;;;9.70;99.90;;;;;;5007879;28;20214;-72
2021/01/22 02:18:38;;;;;;;1.07;0.33;;;9.70;99.90;;;;;;5008085;28;20308;-73
2021/01/22 02:21:15;;;;;;;0.50;0.50;;;9.80;99.90;;;;;;5007738;28;20201;-72
2021/01/22 02:23:45;;;;;;;0.60;0.30;;;10.00;99.90;;;;;;5007954;28;20658;-72
2021/01/22 02:26:26;;;;;;;0.50;0.50;;;10.00;99.90;;;;;;5008073;28;20304;-72
2021/01/22 02:28:56;;;;;;;1.10;0.50;;;10.00;99.90;;;;;;5008157;28;20197;-72
2021/01/22 02:31:25;;;;;;;0.97;0.40;;;10.00;99.90;;;;;;5008089;28;20205;-72
2021/01/22 02:33:55;;;;;;;0.43;0.30;;;10.10;99.90;;;;;;5008105;28;20631;-72
2021/01/22 02:36:22;;;;;;;0.40;0.40;;;10.10;99.90;;;;;;5007530;28;20204;-72
2021/01/22 02:38:51;;;;;;;0.30;0.30;;;10.10;99.90;;;;;;5007853;28;20263;-72
2021/01/22 02:41:20;;;;;;;0.90;0.40;;;10.10;99.90;;;;;;5007935;28;20584;-72
2021/01/22 02:43:49;;;;;;;0.30;0.30;;;10.10;99.90;;;;;;5008116;28;20219;-72
2021/01/22 02:46:16;;;;;;;0.40;0.40;;;10.10;99.90;;;;;;5007325;28;20332;-72
2021/01/22 02:48:44;;;;;;;0.83;0.37;;;10.10;99.90;;;;;;5008006;28;20209;-72
2021/01/22 02:51:11;;;;;;;0.50;0.23;;;10.00;99.90;;;;;;5007588;28;20210;-72
2021/01/22 02:53:37;;;;;;;0.33;0.33;;;10.10;99.90;;;;;;5007935;28;20205;-72
2021/01/22 02:56:09;;;;;;;0.40;0.40;;;10.10;99.90;;;;;;5008055;28;20236;-73
2021/01/22 02:58:45;;;;;;;0.43;0.43;;;10.10;99.90;;;;;;5007667;28;20247;-72
2021/01/22 03:01:16;;;;;;;0.30;0.30;;;10.20;99.90;;;;;;5007217;28;20197;-73
2021/01/22 03:03:52;;;;;;;0.77;0.60;;;10.20;99.90;;;;;;5007528;28;20341;-73
2021/01/22 03:06:26;;;;;;;0.47;0.47;;;10.10;99.90;;;;;;5007418;28;20228;-73
2021/01/22 03:08:54;;;;;;;0.37;0.30;;;10.10;99.90;;;;;;5007464;28;20320;-73
2021/01/22 03:11:23;;;;;;;1.40;0.50;;;10.20;99.90;;;;;;5007689;28;20237;-73
2021/01/22 03:13:51;;;;;;;1.53;0.60;;;10.10;99.90;;;;;;5007488;28;20676;-72
2021/01/22 03:16:18;;;;;;;0.40;0.40;;;10.10;99.90;;;;;;5007112;28;20639;-73
2021/01/22 03:18:58;;;;;;;0.30;0.30;;;10.20;99.90;;;;;;5010861;28;20240;-73
2021/01/22 03:21:24;;;;;;;0.50;0.50;;;10.20;99.90;;;;;;5011320;28;20198;-72
2021/01/22 03:23:51;;;;;;;0.40;0.40;;;10.20;99.90;;;;;;5011124;28;20228;-72
2021/01/22 03:26:17;;;;;;;1.40;0.43;;;10.20;99.90;;;;;;5010737;28;20842;-72
2021/01/22 03:28:44;;;;;;;0.57;0.40;;;10.10;99.90;;;;;;5011180;28;20213;-73
2021/01/22 03:31:10;;;;;;;0.50;0.50;;;10.10;99.90;;;;;;5010803;28;20206;-73
2021/01/22 03:33:36;;;;;;;0.30;0.30;;;10.10;99.90;;;;;;5011017;28;20210;-73
2021/01/22 03:36:05;;;;;;;2.20;0.50;;;10.10;99.90;;;;;;5010618;28;20255;-73
2021/01/22 03:38:31;;;;;;;0.70;0.70;;;10.20;99.90;;;;;;5010658;28;20764;-73
2021/01/22 03:40:58;;;;;;;0.57;0.53;;;10.20;99.90;;;;;;5010600;28;20263;-72
2021/01/22 03:43:24;;;;;;;0.50;0.43;;;10.20;99.90;;;;;;5010800;28;20687;-72
2021/01/22 03:45:50;;;;;;;1.13;0.50;;;10.20;99.90;;;;;;5010134;28;20237;-75
2021/01/22 03:48:17;;;;;;;0.40;0.40;;;10.10;99.90;;;;;;5010415;28;20280;-75
2021/01/22 03:50:43;;;;;;;0.40;0.40;;;10.10;99.90;;;;;;5010449;28;20216;-74
2021/01/22 03:53:11;;;;;;;0.57;0.57;;;10.10;99.90;;;;;;5010335;28;20220;-74
2021/01/22 03:55:37;;;;;;;0.30;0.30;;;10.00;99.90;;;;;;5010340;28;20213;-74
2021/01/22 03:58:04;;;;;;;0.30;0.30;;;9.90;99.90;;;;;;5010443;28;20205;-74
2021/01/22 04:00:30;;;;;;;0.70;0.70;;;9.80;99.90;;;;;;5010166;28;20937;-73
2021/01/22 04:02:57;;;;;;;0.73;0.30;;;9.70;99.90;;;;;;5010628;28;20292;-73
2021/01/22 04:05:24;;;;;;;0.50;0.30;;;9.80;99.90;;;;;;5006001;28;20569;-70
2021/01/22 04:07:50;;;;;;;0.20;0.20;;;9.70;99.90;;;;;;4995244;28;20229;-71
2021/01/22 04:10:17;;;;;;;0.37;0.30;;;9.70;99.90;;;;;;5003118;28;20570;-72
2021/01/22 04:12:44;;;;;;;0.73;0.40;;;9.70;99.90;;;;;;4990519;28;20655;-72
2021/01/22 04:15:11;;;;;;;0.30;0.30;;;9.60;99.90;;;;;;4994740;28;20213;-72
2021/01/22 04:17:38;;;;;;;0.30;0.30;;;9.60;99.90;;;;;;4993257;28;20259;-72
2021/01/22 04:20:05;;;;;;;0.80;0.40;;;9.50;99.90;;;;;;5006382;28;20240;-72
2021/01/22 04:22:32;;;;;;;0.33;0.33;;;9.50;99.90;;;;;;4995140;28;20535;-72
2021/01/22 04:24:58;;;;;;;0.40;0.40;;;9.40;99.90;;;;;;4987864;28;20210;-72
2021/01/22 04:27:25;;;;;;;0.50;0.50;;;9.40;99.90;;;;;;4987029;28;20296;-72
2021/01/22 04:29:52;;;;;;;0.40;0.40;;;9.40;99.90;;;;;;4989576;28;20213;-72
2021/01/22 04:32:18;;;;;;;0.53;0.47;;;9.40;99.90;;;;;;4997493;28;20249;-72
2021/01/22 04:34:44;;;;;;;0.40;0.40;;;9.40;99.90;;;;;;4995100;28;21078;-73
2021/01/22 04:37:11;;;;;;;0.60;0.30;;;9.40;99.90;;;;;;4992045;28;20288;-73
2021/01/22 04:39:37;;;;;;;3.10;2.90;;;9.50;99.90;;;;;;4996993;28;20305;-73
2021/01/22 04:42:05;;;;;;;0.77;0.40;;;9.40;99.90;;;;;;4995290;28;20202;-74
2021/01/22 04:44:32;;;;;;;0.57;0.57;;;9.50;99.90;;;;;;4989171;28;20238;-74
2021/01/22 04:47:00;;;;;;;0.37;0.37;;;9.40;99.90;;;;;;4986795;28;20248;-73
2021/01/22 04:49:26;;;;;;;0.23;0.23;;;9.40;99.90;;;;;;4986948;28;20630;-73
2021/01/22 04:51:57;;;;;;;0.60;0.60;;;9.40;99.90;;;;;;4987059;28;20218;-73
2021/01/22 04:54:27;;;;;;;0.30;0.30;;;9.40;99.90;;;;;;4987067;28;20199;-73
2021/01/22 04:56:57;;;;;;;0.40;0.40;;;9.50;99.90;;;;;;4987320;28;20222;-73
2021/01/22 04:59:40;;;;;;;0.40;0.40;;;9.60;99.90;;;;;;4987738;28;20220;-74
2021/01/22 05:02:07;;;;;;;0.43;0.40;;;9.60;99.90;;;;;;4989337;28;20222;-73
2021/01/22 05:04:34;;;;;;;0.47;0.47;;;9.60;99.90;;;;;;4989540;28;20285;-73
2021/01/22 05:07:01;;;;;;;0.80;0.60;;;9.60;99.90;;;;;;4994247;28;20325;-73
2021/01/22 05:09:29;;;;;;;0.50;0.47;;;9.70;99.90;;;;;;4997273;28;20572;-73
2021/01/22 05:11:55;;;;;;;0.50;0.50;;;9.60;99.90;;;;;;4998932;28;20202;-73
2021/01/22 05:14:22;;;;;;;0.70;0.50;;;9.60;99.90;;;;;;5000226;28;20206;-73
2021/01/22 05:17:03;;;;;;;0.60;0.60;;;9.70;99.90;;;;;;5000094;28;20210;-73
2021/01/22 05:19:31;;;;;;;0.60;0.40;;;9.60;99.90;;;;;;4997753;28;20222;-74
2021/01/22 05:21:57;;;;;;;0.60;0.60;;;9.50;99.90;;;;;;4998438;28;20214;-73
2021/01/22 05:24:26;;;;;;;0.53;0.53;;;9.50;99.90;;;;;;4993058;28;20202;-74
2021/01/22 05:26:59;;;;;;;0.60;0.50;;;9.50;99.90;;;;;;4996578;28;20233;-73
2021/01/22 05:29:26;;;;;;;0.50;0.50;;;9.40;99.90;;;;;;4996267;28;20693;-73
2021/01/22 05:31:53;;;;;;;0.73;0.50;;;9.30;99.90;;;;;;4996378;28;20205;-73
2021/01/22 05:34:19;;;;;;;0.57;0.50;;;9.40;99.90;;;;;;4997615;28;20193;-73
2021/01/22 05:36:48;;;;;;;0.50;0.50;;;9.50;99.90;;;;;;4998080;28;20202;-73
2021/01/22 05:39:22;;;;;;;0.37;0.37;;;9.60;99.90;;;;;;4997939;28;20202;-73
2021/01/22 05:41:53;;;;;;;0.77;0.70;;;9.60;99.90;;;;;;4995914;28;20277;-73
2021/01/22 05:44:24;;;;;;;0.50;0.50;;;9.60;99.90;;;;;;4995502;28;20312;-73
2021/01/22 05:47:07;;;;;;;0.40;0.40;;;9.60;99.90;;;;;;4995935;28;20259;-73
2021/01/22 05:49:52;;;;;;;2.17;0.67;;;9.70;99.90;;;;;;4997511;28;20237;-73
2021/01/22 05:52:21;;;;;;;0.50;0.40;;;9.80;99.90;;;;;;4997292;28;20515;-73
2021/01/22 05:54:48;;;;;;;0.43;0.43;;;10.00;99.90;;;;;;4997637;28;20810;-73
2021/01/22 05:57:14;;;;;;;0.50;0.50;;;10.10;99.90;;;;;;4997852;28;20860;-73
2021/01/22 05:59:41;;;;;;;0.67;0.67;;;10.00;99.90;;;;;;4997806;28;20284;-73
2021/01/22 06:02:25;;;;;;;0.40;0.40;;;10.00;99.90;;;;;;4996009;28;20277;-73
2021/01/22 06:05:07;;;;;;;2.47;0.33;;;9.90;99.90;;;;;;4995365;28;20267;-73
2021/01/22 06:07:36;;;;;;;0.67;0.40;;;9.90;99.90;;;;;;5000329;28;20279;-73
2021/01/22 06:10:13;;;;;;;0.40;0.40;;;9.80;99.90;;;;;;4998491;28;20607;-73
2021/01/22 06:12:46;;;;;;;0.40;0.40;;;9.90;99.90;;;;;;4995374;28;20253;-73
2021/01/22 06:15:15;;;;;;;0.40;0.40;;;9.90;99.90;;;;;;5001592;28;20198;-73
2021/01/22 06:17:47;;;;;;;0.60;0.50;;;10.00;99.90;;;;;;4995698;28;20301;-73
2021/01/22 06:20:17;;;;;;;1.27;1.00;;;10.00;99.90;;;;;;5000473;28;20526;-73
2021/01/22 06:22:53;;;;;;;3.37;3.07;;;10.00;99.90;;;;;;4993880;28;20233;-73
2021/01/22 06:25:20;;;;;;;0.40;0.40;;;10.00;99.90;;;;;;4998865;28;20202;-73
2021/01/22 06:27:47;;;;;;;0.50;0.50;;;10.00;99.90;;;;;;4998293;28;20321;-73
2021/01/22 06:30:15;;;;;;;0.60;0.60;;;10.00;99.90;;;;;;4995380;28;20353;-73
2021/01/22 06:32:42;;;;;;;1.13;0.27;;;10.00;99.90;;;;;;4997562;28;20548;-73
2021/01/22 06:35:11;;;;;;;0.87;0.50;;;10.00;99.90;;;;;;4992955;28;20206;-73
2021/01/22 06:37:39;;;;;;;0.50;0.50;;;9.90;99.90;;;;;;4999855;28;20206;-73
2021/01/22 06:40:08;;;;;;;0.60;0.50;;;9.90;99.90;;;;;;4996236;28;20236;-72
2021/01/22 06:42:38;;;;;;;0.70;0.40;;;9.80;99.90;;;;;;4997491;28;20198;-73
2021/01/22 06:45:06;;;;;;;1.50;0.30;;;9.90;99.90;;;;;;4995422;28;20241;-73
2021/01/22 06:47:33;;;;;;;0.50;0.50;;;9.90;99.90;;;;;;4995041;28;20317;-73
2021/01/22 06:50:00;;;;;;;0.43;0.43;;;9.90;99.90;;;;;;4995077;28;20252;-73
2021/01/22 06:52:26;;;;;;;0.40;0.40;;;10.00;99.90;;;;;;4999203;28;20201;-73
2021/01/22 06:55:07;;;;;;;0.50;0.50;;;9.90;99.90;;;;;;5001807;28;20301;-73
2021/01/22 06:57:34;;;;;;;0.83;0.50;;;10.00;99.90;;;;;;4997811;28;20720;-73
2021/01/22 07:00:01;;;;;;;0.60;0.60;;;10.00;99.90;;;;;;4996632;28;20210;-73
2021/01/22 07:02:42;;;;;;;0.50;0.40;;;9.90;99.90;;;;;;4996147;28;20604;-73
2021/01/22 07:05:44;;;;;;;0.60;0.60;;;9.90;99.90;;;;;;5000199;28;20206;-73
2021/01/22 07:08:14;;;;;;;0.53;0.47;;;9.90;99.90;;;;;;4998945;28;20224;-73
2021/01/22 07:10:58;;;;;;;0.43;0.40;;;9.90;99.90;;;;;;4998306;28;20933;-73
2021/01/22 07:13:42;;;;;;;0.73;0.43;;;9.90;99.90;;;;;;5001036;28;20210;-73
2021/01/22 07:16:11;;;;;;;0.50;0.50;;;9.90;99.90;;;;;;5000353;28;20259;-73
2021/01/22 07:18:44;;;;;;;0.77;0.40;;;9.90;99.90;;;;;;5000503;28;20769;-73
2021/01/22 07:21:31;;;;;;;0.70;0.53;;;9.90;99.90;;;;;;4995678;28;20242;-73
2021/01/22 07:23:59;;;;;;;0.60;0.40;;;9.90;99.90;;;;;;4991245;28;20587;-73
2021/01/22 07:26:34;;;;;;;1.30;0.40;;;9.90;99.90;;;;;;4991041;28;20377;-73
2021/01/22 07:29:13;;;;;;;0.50;0.50;;;9.90;99.90;;;;;;4991190;28;20284;-73
2021/01/22 07:32:01;;;;;;;0.83;0.70;;;9.90;99.90;;;;;;4991096;28;20205;-73
2021/01/22 07:34:47;;;;;;;0.60;0.60;;;10.00;99.90;;;;;;4990895;28;20578;-73
2021/01/22 07:37:15;;;;;;;0.70;0.70;;;9.90;99.90;;;;;;4991366;28;20630;-75
2021/01/22 07:39:42;;;;;;;0.40;0.40;;;10.00;99.90;;;;;;5005297;28;20228;-73
2021/01/22 07:42:12;;;;;;;1.43;0.50;;;9.90;99.90;;;;;;5009895;28;20241;-75
2021/01/22 07:44:40;;;;;;;0.83;0.60;;;10.00;99.90;;;;;;5009441;28;20241;-73
2021/01/22 07:47:07;;;;;;;0.63;0.63;;;10.00;99.90;;;;;;5000818;28;20229;-74
2021/01/22 07:49:34;;;;;;;1.10;1.10;;;10.00;99.90;;;;;;5002982;28;20285;-75
2021/01/22 07:52:02;;;;;;;0.70;0.70;;;10.00;99.90;;;;;;4991004;28;20210;-71
2021/01/22 07:54:39;;;;;;;1.07;0.60;;;10.10;99.90;;;;;;4990345;28;20252;-72
2021/01/22 07:57:14;;;;;;;0.53;0.43;;;10.00;99.90;;;;;;4994977;28;20648;-71
2021/01/22 07:59:41;;;;;;;1.73;0.80;;;10.00;99.90;;;;;;4990424;28;20233;-70
2021/01/22 08:02:15;;;;;;;0.93;0.70;;;10.00;99.90;;;;;;4990159;28;20210;-70
2021/01/22 08:04:42;;;;;;;0.47;0.47;;;10.10;99.90;;;;;;4989236;28;20199;-70
2021/01/22 08:07:09;;;;;;;0.67;0.60;;;10.00;99.90;;;;;;4992728;28;20681;-71
2021/01/22 08:09:36;;;;;;;0.60;0.60;;;10.10;99.90;;;;;;4990457;28;20328;-70
2021/01/22 08:12:12;;;;;;;0.67;0.63;;;10.00;99.90;;;;;;4993526;28;20289;-70
2021/01/22 08:14:39;;;;;;;0.97;0.83;;;10.10;99.90;;;;;;4995314;28;20206;-70
2021/01/22 08:17:06;;;;;;;0.97;0.60;;;10.20;99.90;;;;;;4990021;28;20669;-70
2021/01/22 08:19:34;;;;;;;0.70;0.70;;;10.20;99.90;;;;;;4990093;28;20309;-71
2021/01/22 08:22:02;;;;;;;1.90;1.00;;;10.20;99.90;;;;;;5005029;28;20297;-71
2021/01/22 08:24:28;;;;;;;1.93;0.70;;;10.20;99.90;;;;;;5008777;28;20636;-71
2021/01/22 08:26:59;;;;;;;0.73;0.60;;;10.20;99.90;;;;;;5008220;28;20231;-72
2021/01/22 08:29:29;;;;;;;0.70;0.70;;;10.20;99.90;;;;;;5009834;28;20232;-72
2021/01/22 08:31:57;;;;;;;0.47;0.47;;;10.20;99.90;;;;;;5009636;28;20194;-72
2021/01/22 08:34:24;;;;;;;0.53;0.13;;;9.90;99.90;;;;;;5009872;28;20215;-72
2021/01/22 08:36:52;;;;;;;0.33;0.33;;;9.30;99.90;;;;;;5009863;28;20259;-71
2021/01/22 08:39:19;;;;;;;0.30;0.30;;;8.80;99.90;;;;;;5009822;28;20242;-72
2021/01/22 08:41:45;;;;;;;0.10;0.10;;;8.50;99.90;;;;;;5009540;28;20205;-72
2021/01/22 08:44:12;;;;;;;0.20;0.17;;;8.30;99.90;;;;;;5009139;28;20213;-71
2021/01/22 08:46:49;;;;;;;0.47;0.33;;;8.10;99.90;;;;;;5009325;28;20225;-71
2021/01/22 08:49:17;;;;;;;0.73;0.30;;;8.10;99.90;;;;;;5009384;28;20209;-71
2021/01/22 08:51:44;;;;;;;0.20;0.13;;;8.00;99.90;;;;;;5009642;28;20285;-71
2021/01/22 08:54:10;;;;;;;1.07;0.33;;;7.90;99.90;;;;;;5009321;28;20706;-72
2021/01/22 08:56:37;;;;;;;0.50;0.50;;;7.80;99.90;;;;;;5009573;28;20233;-72
2021/01/22 08:59:08;;;;;;;1.90;0.30;;;7.80;99.90;;;;;;5009583;28;20206;-72
2021/01/22 09:01:52;;;;;;;1.50;0.40;;;7.80;99.90;;;;;;5009532;28;20193;-72
2021/01/22 09:04:30;;;;;;;0.07;0.07;;;7.80;99.90;;;;;;5009177;28;20659;-72
2021/01/22 09:06:57;;;;;;;1.13;0.20;;;7.80;99.90;;;;;;5009421;28;20221;-72
2021/01/22 09:09:38;;;;;;;0.10;0.10;;;7.70;99.90;;;;;;5009240;28;20292;-72
2021/01/22 09:12:12;;;;;;;0.23;0.23;;;7.70;99.90;;;;;;5008828;28;20663;-72
2021/01/22 09:14:56;;;;;;;0.20;0.20;;;7.80;99.90;;;;;;5008729;28;20775;-72
2021/01/22 09:17:37;;;;;;;0.33;0.30;;;7.80;99.90;;;;;;5008632;28;20260;-72
2021/01/22 09:20:12;;;;;;;0.70;0.40;;;7.80;99.90;;;;;;5008872;28;20685;-72
2021/01/22 09:22:39;;;;;;;0.43;0.30;;;7.80;99.90;;;;;;5009108;28;20324;-72
2021/01/22 09:25:07;;;;;;;0.23;0.20;;;7.90;99.90;;;;;;5008854;28;20280;-73
2021/01/22 09:27:35;;;;;;;0.20;0.20;;;7.80;99.90;;;;;;5008703;28;20234;-73
2021/01/22 09:30:01;;;;;;;0.47;0.20;;;7.70;99.90;;;;;;5008862;28;20216;-73
2021/01/22 09:32:29;;;;;;;0.73;0.20;;;7.70;99.90;;;;;;5008697;28;20205;-73
2021/01/22 09:34:56;;;;;;;0.70;0.70;;;7.70;99.90;;;;;;5008674;28;20694;-73
2021/01/22 09:37:23;;;;;;;1.00;0.33;;;7.70;99.90;;;;;;5008659;28;20205;-73
2021/01/22 09:39:49;;;;;;;0.20;0.20;;;7.70;99.90;;;;;;5008888;28;20296;-73
2021/01/22 09:42:16;;;;;;;1.60;0.20;;;7.70;99.90;;;;;;5008605;28;20253;-73
2021/01/22 09:44:43;;;;;;;0.20;0.20;;;7.70;99.90;;;;;;5008262;28;20758;-73
2021/01/22 09:47:09;;;;;;;0.30;0.10;;;7.80;99.90;;;;;;5008047;28;20711;-73
2021/01/22 09:49:35;;;;;;;0.20;0.20;;;7.70;99.90;;;;;;5008591;28;20351;-73
2021/01/22 09:52:02;;;;;;;0.33;0.33;;;7.70;99.90;;;;;;5008730;28;20205;-73
2021/01/22 09:54:29;;;;;;;0.30;0.20;;;7.70;99.90;;;;;;5008330;28;20205;-73
2021/01/22 09:56:55;;;;;;;0.10;0.10;;;7.70;99.90;;;;;;5008187;28;20208;-73
2021/01/22 09:59:22;;;;;;;0.43;0.43;;;7.70;99.90;;;;;;5008397;28;20295;-73
2021/01/22 10:01:48;;;;;;;0.07;0.07;;;7.70;99.90;;;;;;5008286;28;20292;-73
2021/01/22 10:04:15;;;;;;;0.30;0.30;;;7.70;99.90;;;;;;5008029;28;20589;-73
2021/01/22 10:06:41;;;;;;;0.40;0.10;;;7.80;99.90;;;;;;5008452;28;20674;-73
2021/01/22 10:09:10;;;;;;;0.10;0.10;;;7.70;99.90;;;;;;5008581;28;20210;-73
2021/01/22 10:11:38;;;;;;;0.00;0.00;;;7.70;99.90;;;;;;5008042;28;20637;-73
2021/01/22 10:14:05;;;;;;;0.00;0.00;;;7.60;99.90;;;;;;5008217;28;20212;-73
2021/01/22 10:16:31;;;;;;;0.10;0.10;;;7.50;99.90;;;;;;5008082;28;20630;-72
2021/01/22 10:18:58;;;;;;;0.83;0.30;;;7.50;99.90;;;;;;5008162;28;20230;-72
2021/01/22 10:21:24;;;;;;;0.00;0.00;;;7.60;99.90;;;;;;5008192;28;20214;-72
2021/01/22 10:23:52;;;;;;;0.10;0.10;;;7.50;99.90;;;;;;5007906;28;20205;-72
2021/01/22 10:26:20;;;;;;;0.00;0.00;;;7.50;99.90;;;;;;5008600;28;20205;-72
2021/01/22 10:28:49;;;;;;;0.00;0.00;;;7.50;99.90;;;;;;5014155;28;20213;-72
2021/01/22 10:31:16;;;;;;;0.30;0.30;;;7.50;99.90;;;;;;5014591;28;20208;-72
2021/01/22 10:33:42;;;;;;;0.00;0.00;;;7.50;99.90;;;;;;5014705;28;20233;-72
2021/01/22 10:36:09;;;;;;;0.27;0.10;;;7.50;99.90;;;;;;5014715;28;20292;-72
2021/01/22 10:38:36;;;;;;;0.20;0.10;;;7.50;99.90;;;;;;5014630;28;20237;-72
2021/01/22 10:41:03;;;;;;;0.00;0.00;;;7.50;99.90;;;;;;5014622;28;20284;-72
2021/01/22 10:43:29;;;;;;;0.20;0.10;;;7.40;99.90;;;;;;5014613;28;20701;-72
2021/01/22 10:45:57;;;;;;;0.63;0.10;;;7.40;99.90;;;;;;5014065;28;20331;-72
2021/01/22 10:48:24;;;;;;;0.10;0.10;;;7.40;99.90;;;;;;5014205;28;20271;-72
2021/01/22 10:50:51;;;;;;;0.20;0.20;;;7.50;99.90;;;;;;5014500;28;20300;-72
2021/01/22 10:53:18;;;;;;;0.87;0.10;;;7.50;99.90;;;;;;5014205;28;20617;-72
2021/01/22 10:55:45;;;;;;;0.10;0.10;;;7.60;99.90;;;;;;5014173;28;20307;-72
2021/01/22 10:58:11;;;;;;;0.40;0.30;;;7.60;99.90;;;;;;5014089;28;20248;-72
2021/01/22 11:00:38;;;;;;;0.33;0.20;;;7.50;99.90;;;;;;5014733;28;20209;-71
2021/01/22 11:03:05;;;;;;;0.10;0.10;;;7.50;99.90;;;;;;5014460;28;20247;-72
2021/01/22 11:05:32;;;;;;;0.10;0.10;;;7.60;99.90;;;;;;5014231;28;20299;-72
2021/01/22 11:07:58;;;;;;;1.40;0.10;;;7.70;99.90;;;;;;5014048;28;20718;-72
2021/01/22 11:10:25;;;;;;;0.33;0.30;;;7.60;99.90;;;;;;5014258;28;20216;-72
2021/01/22 11:12:51;;;;;;;0.37;0.37;;;7.60;99.90;;;;;;5014020;28;20606;-71
2021/01/22 11:15:18;;;;;;;0.23;0.20;;;7.50;99.90;;;;;;5013788;28;20743;-72
2021/01/22 11:17:44;;;;;;;0.57;0.30;;;7.40;99.90;;;;;;5013755;28;20237;-72
2021/01/22 11:20:13;;;;;;;0.20;0.20;;;7.30;99.90;;;;;;5014022;28;20214;-72
2021/01/22 11:22:39;;;;;;;0.10;0.10;;;7.30;99.90;;;;;;5014279;28;20209;-71
2021/01/22 11:25:06;;;;;;;0.37;0.30;;;7.30;99.90;;;;;;5014279;28;20209;-72
2021/01/22 11:27:33;;;;;;;0.27;0.27;;;7.30;99.90;;;;;;5014098;28;20229;-72
2021/01/22 11:29:59;;;;;;;0.20;0.20;;;7.40;99.90;;;;;;5014269;28;20231;-72
2021/01/22 11:32:25;;;;;;;0.90;0.90;;;7.50;99.90;;;;;;5013759;28;20619;-72
2021/01/22 11:34:52;;;;;;;2.97;1.77;;;7.60;99.90;;;;;;5014301;28;20571;-72
2021/01/22 11:37:19;;;;;;;0.90;0.90;;;7.60;99.90;;;;;;5013922;28;20229;-72
2021/01/22 11:39:46;;;;;;;1.00;1.00;;;7.60;99.90;;;;;;5010903;28;20301;-72
2021/01/22 11:42:12;;;;;;;0.23;0.10;;;7.60;99.90;;;;;;5010925;28;20707;-72
2021/01/22 11:44:38;;;;;;;0.30;0.20;;;7.50;99.90;;;;;;5010358;28;20241;-72
2021/01/22 11:47:06;;;;;;;1.03;0.30;;;7.50;99.90;;;;;;5010616;28;20321;-72
2021/01/22 11:49:32;;;;;;;0.13;0.13;;;7.50;99.90;;;;;;5010587;28;20205;-72
2021/01/22 11:51:58;;;;;;;0.20;0.20;;;7.40;99.90;;;;;;5010890;28;20300;-72
2021/01/22 11:54:26;;;;;;;0.10;0.10;;;7.50;99.90;;;;;;5010177;28;20248;-72
2021/01/22 11:56:52;;;;;;;0.30;0.23;;;7.60;99.90;;;;;;5010752;28;20213;-72
2021/01/22 11:59:19;;;;;;;0.20;0.20;;;7.60;99.90;;;;;;5010458;28;20216;-72
2021/01/22 12:01:46;;;;;;;0.20;0.20;;;7.60;99.90;;;;;;5010529;28;20210;-72
2021/01/22 12:04:12;;;;;;;0.83;0.23;;;7.60;99.90;;;;;;5010320;28;20214;-72
2021/01/22 12:06:39;;;;;;;0.20;0.20;;;7.60;99.90;;;;;;5010071;28;20225;-72
2021/01/22 12:09:06;;;;;;;0.53;0.37;;;7.60;99.90;;;;;;5010540;28;20632;-72
2021/01/22 12:11:34;;;;;;;0.20;0.20;;;7.60;99.90;;;;;;5009936;28;20220;-72
2021/01/22 12:14:00;;;;;;;0.30;0.30;;;7.60;99.90;;;;;;5010518;28;20300;-72
2021/01/22 12:16:27;;;;;;;1.00;0.97;;;7.60;99.90;;;;;;5010173;28;20251;-72
2021/01/22 12:18:53;;;;;;;0.50;0.50;;;7.50;99.90;;;;;;5010147;28;20275;-72
2021/01/22 12:21:20;;;;;;;1.87;0.60;;;7.50;99.90;;;;;;5009675;28;20691;-72
2021/01/22 12:23:46;;;;;;;0.50;0.40;;;7.50;99.90;;;;;;5010186;28;20202;-72
2021/01/22 12:26:13;;;;;;;1.63;1.00;;;7.60;99.90;;;;;;5010025;28;20743;-72
2021/01/22 12:28:41;;;;;;;0.60;0.60;;;7.60;99.90;;;;;;5009866;28;20328;-72
2021/01/22 12:31:08;;;;;;;1.90;0.70;;;7.60;99.90;;;;;;5009963;28;20237;-72
2021/01/22 12:33:35;;;;;;;0.40;0.40;;;7.50;99.90;;;;;;5009938;28;20205;-72
2021/01/22 12:36:02;;;;;;;0.50;0.43;;;7.50;99.90;;;;;;5009859;28;20748;-72
2021/01/22 12:38:28;;;;;;;1.40;1.10;;;7.50;99.90;;;;;;5009884;28;20312;-72
2021/01/22 12:40:55;;;;;;;0.50;0.50;;;7.50;99.90;;;;;;5009761;28;20292;-72
2021/01/22 12:43:22;;;;;;;1.20;0.47;;;7.50;99.90;;;;;;5009386;28;20220;-72
2021/01/22 12:45:49;;;;;;;0.90;0.90;;;7.50;99.90;;;;;;5009414;28;20772;-72
2021/01/22 12:48:15;;;;;;;0.70;0.70;;;7.60;99.90;;;;;;5009580;28;20264;-72
2021/01/22 12:50:43;;;;;;;1.43;0.70;;;7.60;99.90;;;;;;5009001;28;20205;-72
2021/01/22 12:53:09;;;;;;;1.20;1.10;;;7.60;99.90;;;;;;5009370;28;20742;-73
2021/01/22 12:55:36;;;;;;;0.87;0.60;;;7.60;99.90;;;;;;5009942;28;20220;-72
2021/01/22 12:58:02;;;;;;;0.70;0.37;;;7.60;99.90;;;;;;5009322;28;20809;-72
2021/01/22 13:00:29;;;;;;;0.87;0.50;;;7.60;99.90;;;;;;5009245;28;20292;-72
2021/01/22 13:02:56;;;;;;;0.67;0.60;;;7.50;99.90;;;;;;5009361;28;20228;-73